Time;durP1;ratioP1;P1;durP2;ratioP2;P2;SDS_P1;SDS_P2;PMS_P1;PMS_P2;Temp;Humidity;BMP_temperature;BMP_pressure;BME280_temperature;BME280_humidity;BME280_pressure;Samples;Min_cycle;Max_cycle;Signal;HPM_P1;HPM_P2
2023/03/18 00:01:50;;;;;;;8.27;4.22;;;;;;;6.56;49.36;101348.78;4999248;28;20104;-71
2023/03/18 00:04:16;;;;;;;15.13;8.55;;;;;;;5.78;49.36;101239.41;4997149;28;20408;-69
2023/03/18 00:06:42;;;;;;;12.63;5.03;;;;;;;6.54;49.28;101368.72;4997548;28;20387;-70
2023/03/18 00:09:10;;;;;;;9.13;4.70;;;;;;;5.75;49.59;101232.38;5001711;28;20042;-70
2023/03/18 00:11:36;;;;;;;6.80;2.80;;;;;;;6.28;49.34;101326.19;5000724;28;20790;-76
2023/03/18 00:14:02;;;;;;;11.00;4.97;;;;;;;6.55;48.83;101368.78;5000737;28;20100;-71
2023/03/18 00:16:27;;;;;;;16.70;9.10;;;;;;;5.96;49.08;101266.09;5001153;28;20042;-69
2023/03/18 00:18:53;;;;;;;7.55;3.92;;;;;;;6.47;48.92;101367.63;5003135;28;20030;-71
2023/03/18 00:21:19;;;;;;;7.18;3.58;;;;;;;5.60;49.46;101221.47;4999930;28;20042;-70
2023/03/18 00:23:45;;;;;;;9.23;4.07;;;;;;;6.33;49.56;101374.13;5004145;28;20807;-74
2023/03/18 00:26:10;;;;;;;6.95;3.58;;;;;;;6.37;49.56;101352.53;5002213;28;20512;-70
2023/03/18 00:28:36;;;;;;;7.22;3.15;;;;;;;6.23;48.30;101335.56;4995482;28;20045;-75
2023/03/18 00:31:07;;;;;;;7.55;2.58;;;;;;;6.02;48.06;101321.00;4997041;28;20037;-71
2023/03/18 00:33:38;;;;;;;8.05;2.58;;;;;;;5.63;48.36;101208.53;5007626;28;20517;-71
2023/03/18 00:36:05;;;;;;;6.38;3.50;;;;;;;5.56;48.62;101194.44;5006193;28;20183;-71
2023/03/18 00:38:34;;;;;;;9.07;3.72;;;;;;;5.62;48.66;101197.25;4998163;28;20050;-72
2023/03/18 00:41:14;;;;;;;16.73;6.80;;;;;;;5.62;49.65;101206.75;5003065;28;20185;-69
2023/03/18 00:43:48;;;;;;;11.73;5.15;;;;;;;6.37;49.24;101336.91;5004022;28;20049;-71
2023/03/18 00:46:16;;;;;;;5.70;2.67;;;;;;;6.11;49.38;101295.25;5001360;28;20054;-72
2023/03/18 00:48:43;;;;;;;4.18;2.20;;;;;;;5.75;49.51;101231.50;5007872;28;20052;-73
2023/03/18 00:51:12;;;;;;;6.20;3.45;;;;;;;6.15;49.95;101288.41;5000879;28;20053;-70
2023/03/18 00:53:40;;;;;;;9.95;3.28;;;;;;;6.32;50.05;101333.25;5002348;28;20046;-72
2023/03/18 00:56:07;;;;;;;7.07;3.53;;;;;;;6.29;50.14;101331.41;5002095;28;20088;-72
2023/03/18 00:58:34;;;;;;;8.00;4.22;;;;;;;6.16;51.25;101298.00;5006878;28;20156;-71
2023/03/18 01:01:00;;;;;;;5.95;3.33;;;;;;;6.38;50.71;101335.19;4998653;28;20055;-71
2023/03/18 01:03:25;;;;;;;9.60;4.57;;;;;;;6.41;49.74;101333.53;5003254;28;20030;-70
2023/03/18 01:05:52;;;;;;;7.03;2.08;;;;;;;6.39;49.75;101323.91;5000803;28;20046;-75
2023/03/18 01:08:20;;;;;;;9.32;3.22;;;;;;;5.44;49.78;101175.81;5005632;28;20046;-73
2023/03/18 01:10:47;;;;;;;10.13;3.78;;;;;;;5.59;49.24;101194.53;5000813;28;20058;-72
2023/03/18 01:13:13;;;;;;;4.53;1.55;;;;;;;5.48;50.00;101196.81;4996233;28;20057;-73
2023/03/18 01:15:39;;;;;;;5.05;2.72;;;;;;;6.34;48.45;101318.53;5001501;28;20422;-71
2023/03/18 01:18:05;;;;;;;7.88;3.97;;;;;;;6.00;48.51;101295.75;4994773;28;20037;-73
2023/03/18 01:20:30;;;;;;;11.88;3.42;;;;;;;6.28;49.18;101349.63;5003155;28;20133;-71
2023/03/18 01:22:57;;;;;;;9.55;3.47;;;;;;;5.76;48.62;101248.88;4994016;28;20104;-72
2023/03/18 01:25:22;;;;;;;4.63;1.88;;;;;;;5.55;49.74;101213.50;4997202;28;20053;-71
2023/03/18 01:27:48;;;;;;;4.63;1.80;;;;;;;6.20;48.86;101325.03;4994628;28;20027;-75
2023/03/18 01:30:14;;;;;;;10.25;2.90;;;;;;;6.22;48.66;101323.38;5000290;28;20170;-72
2023/03/18 01:32:42;;;;;;;12.23;4.05;;;;;;;5.32;49.12;101185.84;4997511;28;20045;-71
2023/03/18 01:35:08;;;;;;;16.02;3.25;;;;;;;6.10;49.60;101301.28;5003492;28;20139;-74
2023/03/18 01:37:35;;;;;;;10.90;2.80;;;;;;;6.01;48.88;101289.69;5001540;28;20058;-71
2023/03/18 01:40:01;;;;;;;5.60;2.05;;;;;;;6.06;49.91;101299.44;5000989;28;20104;-72
2023/03/18 01:42:27;;;;;;;7.05;3.47;;;;;;;5.28;50.88;101190.03;5000408;28;20087;-72
2023/03/18 01:45:28;;;;;;;6.32;2.70;;;;;;;6.14;51.42;101325.72;5000340;28;20089;-72
2023/03/18 01:47:56;;;;;;;6.75;2.80;;;;;;;6.19;50.78;101331.97;4967183;28;20059;-74
2023/03/18 01:50:26;;;;;;;4.70;2.38;;;;;;;6.03;50.55;101321.88;4994589;28;20129;-74
2023/03/18 01:52:56;;;;;;;5.65;2.22;;;;;;;6.13;50.22;101332.66;4994504;28;20046;-73
2023/03/18 01:55:26;;;;;;;6.15;1.77;;;;;;;5.39;49.51;101198.22;5006180;28;20064;-71
2023/03/18 01:57:52;;;;;;;4.57;2.42;;;;;;;6.25;50.11;101332.19;5002864;28;20124;-74
2023/03/18 02:00:18;;;;;;;7.15;3.33;;;;;;;5.53;51.10;101219.50;5001155;28;20255;-71
2023/03/18 02:02:45;;;;;;;7.43;2.08;;;;;;;6.11;50.13;101323.91;4998622;28;20184;-70
2023/03/18 02:05:15;;;;;;;8.38;2.00;;;;;;;5.46;50.20;101200.19;4998264;28;21037;-71
2023/03/18 02:07:42;;;;;;;5.13;2.08;;;;;;;5.23;50.14;101191.59;5003453;28;20177;-71
2023/03/18 02:10:12;;;;;;;8.70;2.88;;;;;;;5.00;49.99;101186.47;4994012;28;20069;-72
2023/03/18 02:12:40;;;;;;;7.35;2.65;;;;;;;6.02;50.81;101322.72;4998842;28;20037;-72
2023/03/18 02:15:15;;;;;;;9.80;3.47;;;;;;;5.57;50.54;101223.94;4996951;28;20054;-76
2023/03/18 02:17:46;;;;;;;6.45;2.05;;;;;;;5.90;49.68;101298.00;5000773;28;20046;-72
2023/03/18 02:20:18;;;;;;;6.10;2.63;;;;;;;5.99;50.23;101335.63;4997654;28;20058;-70
2023/03/18 02:22:56;;;;;;;11.13;3.75;;;;;;;5.42;50.64;101305.00;5001048;28;20407;-72
2023/03/18 02:25:48;;;;;;;5.57;2.25;;;;;;;5.44;50.89;101334.59;4999783;28;20045;-71
2023/03/18 02:28:20;;;;;;;3.28;1.55;;;;;;;5.00;51.63;101307.84;4996196;28;20521;-71
2023/03/18 02:30:51;;;;;;;4.15;1.48;;;;;;;4.57;51.63;101199.66;4994556;28;20076;-71
2023/03/18 02:33:20;;;;;;;8.52;3.25;;;;;;;4.62;52.26;101183.41;4994997;28;20050;-73
2023/03/18 02:35:49;;;;;;;8.43;1.90;;;;;;;4.89;52.59;101304.81;5001558;28;20045;-74
2023/03/18 02:38:14;;;;;;;6.93;2.45;;;;;;;4.76;52.62;101281.81;4995798;28;20108;-74
2023/03/18 02:40:41;;;;;;;6.03;2.60;;;;;;;5.05;53.51;101350.50;4993141;28;20057;-72
2023/03/18 02:43:24;;;;;;;5.70;2.70;;;;;;;5.02;53.99;101343.47;4996162;28;20040;-70
2023/03/18 02:46:16;;;;;;;8.00;3.10;;;;;;;4.96;54.94;101347.56;4996229;28;20034;-69
2023/03/18 02:48:44;;;;;;;7.43;1.90;;;;;;;4.86;55.89;101352.41;5029790;28;20547;-73
2023/03/18 02:51:12;;;;;;;5.13;2.20;;;;;;;4.07;55.80;101217.66;4993704;28;20049;-72
2023/03/18 02:53:38;;;;;;;5.82;2.25;;;;;;;4.83;56.67;101336.69;4999450;28;20038;-70
2023/03/18 02:56:04;;;;;;;4.60;1.92;;;;;;;4.02;55.79;101186.31;4998253;28;20077;-74
2023/03/18 02:58:31;;;;;;;7.47;1.92;;;;;;;4.83;56.92;101341.88;4996804;28;20050;-73
2023/03/18 03:00:57;;;;;;;5.95;2.13;;;;;;;4.84;58.18;101351.44;5001142;28;20041;-70
2023/03/18 03:03:23;;;;;;;4.90;2.35;;;;;;;4.95;59.92;101356.19;5001563;28;20045;-70
2023/03/18 03:05:49;;;;;;;8.50;2.03;;;;;;;5.17;60.99;101350.06;4993886;28;20091;-71
2023/03/18 03:08:15;;;;;;;8.98;4.18;;;;;;;5.28;59.45;101360.03;5003420;28;20050;-73
2023/03/18 03:10:41;;;;;;;4.53;2.25;;;;;;;5.34;58.42;101345.47;4999601;28;20045;-72
2023/03/18 03:13:08;;;;;;;10.52;2.95;;;;;;;5.34;59.88;101320.38;5006289;28;20036;-70
2023/03/18 03:15:35;;;;;;;9.13;3.05;;;;;;;5.36;59.16;101308.31;5000085;28;20742;-71
2023/03/18 03:18:02;;;;;;;4.63;2.05;;;;;;;5.33;57.11;101312.50;5001874;28;20772;-71
2023/03/18 03:20:32;;;;;;;5.75;2.63;;;;;;;5.52;57.13;101353.94;5002217;28;20076;-70
2023/03/18 03:22:58;;;;;;;4.35;1.52;;;;;;;5.27;57.33;101341.78;4994582;28;20061;-71
2023/03/18 03:25:25;;;;;;;6.20;2.42;;;;;;;5.22;57.10;101327.69;5003264;28;20120;-75
2023/03/18 03:27:51;;;;;;;4.13;2.17;;;;;;;5.04;56.94;101305.41;5000062;28;20037;-74
2023/03/18 03:30:17;;;;;;;4.80;1.85;;;;;;;5.26;56.08;101353.88;5000618;28;20052;-72
2023/03/18 03:32:43;;;;;;;2.95;2.00;;;;;;;4.37;57.30;101194.59;4996249;28;20038;-72
2023/03/18 03:35:12;;;;;;;5.53;1.85;;;;;;;5.20;57.04;101355.41;5000139;28;20042;-69
2023/03/18 03:37:37;;;;;;;10.40;2.85;;;;;;;5.07;57.29;101322.84;4999606;28;20069;-72
2023/03/18 03:40:05;;;;;;;5.60;2.53;;;;;;;5.31;56.82;101341.06;5001150;28;20113;-71
2023/03/18 03:42:30;;;;;;;6.47;2.35;;;;;;;5.10;57.46;101319.47;4998510;28;20091;-73
2023/03/18 03:44:56;;;;;;;5.78;3.38;;;;;;;5.09;57.81;101347.19;5003773;28;20810;-69
2023/03/18 03:47:21;;;;;;;5.22;2.00;;;;;;;4.42;58.84;101220.75;4998833;28;20045;-70
2023/03/18 03:49:47;;;;;;;16.52;2.92;;;;;;;4.65;61.03;101282.28;5000038;28;20361;-72
2023/03/18 03:52:13;;;;;;;20.50;3.35;;;;;;;5.24;62.94;101354.66;5001694;28;20046;-71
2023/03/18 03:54:40;;;;;;;4.30;1.40;;;;;;;5.46;64.00;101346.81;5003366;28;20038;-70
2023/03/18 03:57:06;;;;;;;5.30;2.10;;;;;;;5.19;64.69;101325.88;5001188;28;20084;-73
2023/03/18 03:59:32;;;;;;;5.10;1.30;;;;;;;5.19;62.70;101344.09;4996932;28;21035;-70
2023/03/18 04:01:58;;;;;;;4.82;1.35;;;;;;;4.66;63.31;101194.81;4999328;28;20050;-72
2023/03/18 04:04:23;;;;;;;5.50;2.22;;;;;;;5.31;63.42;101308.94;5001137;28;22370;-71
2023/03/18 04:06:49;;;;;;;2.80;1.45;;;;;;;4.57;61.43;101194.47;5000872;28;20050;-71
2023/03/18 04:09:16;;;;;;;4.25;2.60;;;;;;;5.18;60.13;101321.53;5003361;28;20133;-70
2023/03/18 04:11:43;;;;;;;4.97;2.00;;;;;;;4.73;62.01;101240.06;4997457;28;20062;-71
2023/03/18 04:14:09;;;;;;;5.47;1.52;;;;;;;4.91;59.82;101226.88;4999776;28;20038;-72
2023/03/18 04:16:34;;;;;;;9.63;2.75;;;;;;;4.85;58.70;101232.75;5000117;28;20490;-70
2023/03/18 04:19:00;;;;;;;5.10;2.78;;;;;;;4.96;60.24;101204.50;5001565;28;20523;-72
2023/03/18 04:21:26;;;;;;;5.38;1.60;;;;;;;4.85;58.85;101220.63;5009377;28;20033;-70
2023/03/18 04:23:52;;;;;;;6.40;3.60;;;;;;;5.24;57.66;101313.94;5004557;28;20049;-72
2023/03/18 04:26:17;;;;;;;3.45;1.73;;;;;;;4.54;57.69;101207.31;4999127;28;20077;-72
2023/03/18 04:28:43;;;;;;;4.03;1.80;;;;;;;5.36;57.48;101349.94;4994989;28;20403;-73
2023/03/18 04:31:08;;;;;;;4.93;2.17;;;;;;;4.52;55.86;101217.69;5000080;28;20072;-72
2023/03/18 04:33:34;;;;;;;5.03;2.42;;;;;;;5.32;55.59;101344.56;5003979;28;20050;-70
2023/03/18 04:36:00;;;;;;;6.18;2.47;;;;;;;4.50;55.21;101198.53;5001457;28;20060;-70
2023/03/18 04:38:27;;;;;;;3.80;2.00;;;;;;;5.36;55.74;101357.75;5002677;28;20084;-74
2023/03/18 04:40:52;;;;;;;5.38;2.47;;;;;;;5.32;55.04;101352.38;5003661;28;20135;-72
2023/03/18 04:43:18;;;;;;;10.75;1.80;;;;;;;5.16;54.07;101330.97;5004581;28;20137;-74
2023/03/18 04:45:44;;;;;;;3.70;1.70;;;;;;;5.39;54.21;101350.03;5001948;28;20045;-71
2023/03/18 04:48:09;;;;;;;6.20;2.65;;;;;;;5.31;54.67;101361.88;5003321;28;20132;-70
2023/03/18 04:50:35;;;;;;;18.67;2.47;;;;;;;5.31;53.88;101329.75;5001008;28;20133;-71
2023/03/18 04:53:00;;;;;;;7.07;1.92;;;;;;;5.39;54.37;101357.84;5000749;28;20046;-72
2023/03/18 04:55:26;;;;;;;5.10;2.50;;;;;;;4.80;53.85;101208.28;5005966;28;20116;-71
2023/03/18 04:57:52;;;;;;;5.13;1.90;;;;;;;4.75;52.51;101220.22;4996620;28;20566;-74
2023/03/18 05:00:22;;;;;;;5.95;2.28;;;;;;;4.63;52.15;101218.06;5006207;28;20026;-73
2023/03/18 05:02:48;;;;;;;4.50;2.25;;;;;;;5.43;51.73;101351.00;5002316;28;20049;-73
2023/03/18 05:05:14;;;;;;;7.00;2.33;;;;;;;5.52;51.79;101356.56;4998888;28;20162;-73
2023/03/18 05:07:41;;;;;;;5.07;2.10;;;;;;;5.40;51.59;101345.72;5000933;28;20501;-71
2023/03/18 05:10:08;;;;;;;4.22;1.98;;;;;;;5.39;51.22;101357.84;5003856;28;20046;-72
2023/03/18 05:12:34;;;;;;;6.47;3.42;;;;;;;5.45;51.39;101344.16;5000306;28;20034;-72
2023/03/18 05:15:00;;;;;;;7.70;2.47;;;;;;;5.50;51.62;101355.59;5002157;28;20046;-71
2023/03/18 05:17:25;;;;;;;7.43;1.90;;;;;;;5.59;51.38;101348.13;4985015;28;20124;-71
2023/03/18 05:19:51;;;;;;;8.43;2.13;;;;;;;4.95;52.25;101218.38;4989036;28;20054;-71
2023/03/18 05:22:18;;;;;;;6.00;1.67;;;;;;;5.86;51.04;101350.81;5002708;28;20047;-71
2023/03/18 05:24:47;;;;;;;6.07;1.88;;;;;;;4.89;49.95;101219.00;5006523;28;20033;-72
2023/03/18 05:27:16;;;;;;;6.60;2.08;;;;;;;4.77;50.57;101239.38;5003978;28;20054;-72
2023/03/18 05:29:41;;;;;;;9.55;2.08;;;;;;;4.99;50.56;101243.66;5001909;28;20056;-71
2023/03/18 05:32:08;;;;;;;5.18;1.65;;;;;;;5.59;50.28;101355.94;5003061;28;20053;-71
2023/03/18 05:34:36;;;;;;;10.55;2.78;;;;;;;5.64;50.75;101363.91;5000479;28;20064;-72
2023/03/18 05:37:06;;;;;;;5.05;2.10;;;;;;;4.75;51.09;101207.22;5001406;28;20175;-70
2023/03/18 05:39:32;;;;;;;9.20;3.03;;;;;;;5.75;51.24;101343.47;4998794;28;20026;-69
2023/03/18 05:41:58;;;;;;;5.70;2.17;;;;;;;5.31;51.68;101238.69;5000139;28;20096;-72
2023/03/18 05:44:24;;;;;;;6.75;3.50;;;;;;;5.19;51.21;101229.63;4996669;28;20084;-71
2023/03/18 05:46:51;;;;;;;10.57;3.60;;;;;;;5.06;51.69;101224.84;4997052;28;20565;-72
2023/03/18 05:49:18;;;;;;;6.30;2.30;;;;;;;5.80;49.43;101348.00;4999884;28;20216;-70
2023/03/18 05:51:45;;;;;;;9.35;2.95;;;;;;;5.22;49.78;101253.16;5002427;28;20486;-71
2023/03/18 05:54:11;;;;;;;5.60;3.05;;;;;;;5.04;51.21;101237.78;4996599;28;20093;-72
2023/03/18 05:56:36;;;;;;;7.47;2.08;;;;;;;5.78;51.01;101340.97;5005240;28;20111;-69
2023/03/18 05:59:02;;;;;;;5.75;3.22;;;;;;;5.10;50.40;101228.41;4995984;28;20053;-72
2023/03/18 06:01:29;;;;;;;6.95;2.15;;;;;;;5.78;50.62;101347.03;5004209;28;20050;-72
2023/03/18 06:03:55;;;;;;;6.93;3.15;;;;;;;6.06;50.56;101353.22;4995174;28;20048;-71
2023/03/18 06:06:20;;;;;;;9.13;4.57;;;;;;;6.01;51.01;101360.91;4997217;28;20026;-71
2023/03/18 06:08:47;;;;;;;6.03;3.03;;;;;;;4.91;50.68;101146.25;5000242;28;20042;-70
2023/03/18 06:11:12;;;;;;;3.25;1.77;;;;;;;6.31;49.52;101367.97;5000177;28;20046;-71
2023/03/18 06:13:38;;;;;;;3.90;2.13;;;;;;;6.22;50.89;101354.63;5000041;28;20390;-71
2023/03/18 06:16:05;;;;;;;13.48;3.58;;;;;;;6.48;50.46;101350.25;4996978;28;20780;-73
2023/03/18 06:18:30;;;;;;;6.75;2.78;;;;;;;6.50;49.35;101281.69;5002029;28;20085;-72
2023/03/18 06:20:56;;;;;;;11.27;3.00;;;;;;;6.54;49.45;101265.31;4997969;28;20047;-72
2023/03/18 06:23:22;;;;;;;16.90;2.60;;;;;;;7.04;48.97;101352.84;4998428;28;20046;-72
2023/03/18 06:25:48;;;;;;;15.75;4.63;;;;;;;6.34;49.82;101227.31;4999878;28;20046;-73
2023/03/18 06:28:14;;;;;;;5.97;2.67;;;;;;;6.41;48.93;101234.47;4997573;28;20045;-70
2023/03/18 06:30:40;;;;;;;6.15;2.70;;;;;;;6.52;49.32;101264.38;5000899;28;20046;-72
2023/03/18 06:33:07;;;;;;;7.18;3.38;;;;;;;6.58;49.49;101239.31;5000470;28;20137;-71
2023/03/18 06:35:33;;;;;;;9.23;4.07;;;;;;;6.53;48.91;101244.38;5013193;28;20381;-69
2023/03/18 06:37:58;;;;;;;14.20;2.67;;;;;;;7.26;49.86;101372.59;4986220;28;20096;-72
2023/03/18 06:40:24;;;;;;;7.97;3.55;;;;;;;7.04;51.74;101356.31;4980777;28;20053;-72
2023/03/18 06:42:50;;;;;;;16.67;4.32;;;;;;;6.98;52.46;101324.84;4982698;28;20046;-72
2023/03/18 06:45:16;;;;;;;15.65;3.60;;;;;;;6.39;53.70;101250.91;4984113;28;20131;-71
2023/03/18 06:47:43;;;;;;;18.90;4.55;;;;;;;6.79;57.65;101331.25;4981934;28;20148;-71
2023/03/18 06:50:09;;;;;;;9.85;4.10;;;;;;;7.19;57.86;101375.06;4993151;28;20050;-75
2023/03/18 06:52:36;;;;;;;11.48;4.82;;;;;;;6.76;60.34;101370.25;4998733;28;20053;-71
2023/03/18 06:55:02;;;;;;;10.70;4.22;;;;;;;6.31;58.95;101242.88;4999749;28;20364;-71
2023/03/18 06:57:29;;;;;;;6.85;3.95;;;;;;;7.10;61.22;101382.63;5000771;28;20030;-70
2023/03/18 06:59:55;;;;;;;8.20;4.00;;;;;;;7.16;61.28;101367.16;4998822;28;20054;-71
2023/03/18 07:02:22;;;;;;;11.95;4.22;;;;;;;6.94;61.43;101352.56;5002224;28;20053;-71
2023/03/18 07:04:48;;;;;;;8.93;4.03;;;;;;;7.15;61.03;101357.53;4992664;28;20070;-70
2023/03/18 07:07:14;;;;;;;31.27;4.85;;;;;;;7.05;60.86;101378.13;4997960;28;20076;-70
2023/03/18 07:09:39;;;;;;;10.25;4.63;;;;;;;6.60;63.31;101375.84;5000413;28;20065;-69
2023/03/18 07:12:06;;;;;;;9.80;4.47;;;;;;;6.64;61.52;101373.38;4994236;28;20767;-70
2023/03/18 07:14:31;;;;;;;8.88;4.10;;;;;;;6.88;61.65;101381.09;4998846;28;20045;-71
2023/03/18 07:16:57;;;;;;;6.65;3.58;;;;;;;6.88;59.04;101399.38;4999423;28;20053;-71
2023/03/18 07:19:23;;;;;;;6.30;2.60;;;;;;;6.78;61.22;101384.25;4995107;28;20390;-70
2023/03/18 07:21:49;;;;;;;7.15;2.67;;;;;;;6.63;63.65;101357.69;5000150;28;20148;-70
2023/03/18 07:24:16;;;;;;;10.57;4.88;;;;;;;7.24;63.09;101398.69;4996015;28;20064;-71
2023/03/18 07:26:41;;;;;;;8.70;4.88;;;;;;;6.31;62.81;101246.34;4997075;28;20046;-70
2023/03/18 07:29:07;;;;;;;8.43;3.65;;;;;;;6.82;61.37;101380.91;4998574;28;20056;-70
2023/03/18 07:31:33;;;;;;;6.80;2.33;;;;;;;6.07;59.83;101250.81;4997675;28;20052;-70
2023/03/18 07:33:58;;;;;;;8.60;4.55;;;;;;;6.96;59.88;101363.94;4996949;28;20034;-70
2023/03/18 07:36:25;;;;;;;7.50;3.08;;;;;;;7.11;61.14;101396.53;5000706;28;20077;-71
2023/03/18 07:38:51;;;;;;;12.63;3.67;;;;;;;6.81;60.65;101366.06;4994446;28;20057;-70
2023/03/18 07:41:16;;;;;;;15.95;4.82;;;;;;;6.50;61.10;101252.13;4997706;28;20124;-71
2023/03/18 07:43:42;;;;;;;10.02;4.18;;;;;;;7.49;59.31;101382.00;4995130;28;20046;-71
2023/03/18 07:46:08;;;;;;;8.77;3.90;;;;;;;7.68;59.85;101404.31;5001995;28;20038;-73
2023/03/18 07:48:33;;;;;;;8.55;3.83;;;;;;;7.28;57.89;101397.94;4999400;28;20034;-72
2023/03/18 07:51:00;;;;;;;7.25;4.78;;;;;;;7.09;58.53;101370.38;4996199;28;20085;-72
2023/03/18 07:53:26;;;;;;;11.63;4.07;;;;;;;7.07;56.89;101390.38;4993323;28;20054;-71
2023/03/18 07:55:52;;;;;;;9.70;3.88;;;;;;;6.92;57.31;101395.97;4993515;28;20406;-77
2023/03/18 07:58:18;;;;;;;10.23;4.25;;;;;;;6.48;56.65;101254.69;4997871;28;20057;-73
2023/03/18 08:00:44;;;;;;;14.57;3.65;;;;;;;6.89;56.98;101273.28;5012305;28;20030;-71
2023/03/18 08:03:11;;;;;;;11.07;5.22;;;;;;;7.32;56.78;101391.06;5004593;28;20565;-71
2023/03/18 08:05:37;;;;;;;10.57;5.45;;;;;;;7.20;58.19;101407.25;5000822;28;20627;-71
2023/03/18 08:08:03;;;;;;;8.07;5.47;;;;;;;7.36;58.94;101406.00;5006440;28;20395;-71
2023/03/18 08:10:29;;;;;;;7.45;3.67;;;;;;;6.47;58.00;101286.81;4995758;28;20191;-73
2023/03/18 08:12:56;;;;;;;8.38;3.88;;;;;;;6.67;57.22;101265.66;5005648;28;20528;-71
2023/03/18 08:15:22;;;;;;;15.27;3.95;;;;;;;7.54;58.52;101380.41;4999858;28;20042;-70
2023/03/18 08:17:47;;;;;;;8.52;4.78;;;;;;;7.68;58.48;101406.00;5003027;28;20045;-72
2023/03/18 08:20:14;;;;;;;16.38;4.35;;;;;;;7.19;60.32;101379.41;4998056;28;20049;-71
2023/03/18 08:22:39;;;;;;;8.18;4.45;;;;;;;7.93;58.93;101404.97;5005205;28;20563;-71
2023/03/18 08:25:06;;;;;;;7.22;3.85;;;;;;;7.81;58.04;101345.41;5004486;28;20037;-73
2023/03/18 08:27:31;;;;;;;12.82;3.50;;;;;;;7.58;58.04;101298.66;5001144;28;20125;-72
2023/03/18 08:29:57;;;;;;;7.60;2.50;;;;;;;7.53;53.04;101341.19;4997744;28;20062;-73
2023/03/18 08:32:23;;;;;;;9.00;4.18;;;;;;;8.02;51.26;101402.59;5001394;28;20522;-77
2023/03/18 08:34:48;;;;;;;10.70;4.18;;;;;;;7.47;51.51;101393.22;5004513;28;20058;-74
2023/03/18 08:37:14;;;;;;;6.15;4.00;;;;;;;6.84;51.35;101281.81;4998958;28;20060;-74
2023/03/18 08:39:42;;;;;;;10.30;3.88;;;;;;;7.08;50.98;101289.47;5002972;28;20032;-74
2023/03/18 08:42:09;;;;;;;9.82;4.03;;;;;;;7.63;52.17;101412.84;5006285;28;20042;-75
2023/03/18 08:44:34;;;;;;;10.85;3.40;;;;;;;7.49;54.25;101418.56;5005097;28;20068;-74
2023/03/18 08:47:00;;;;;;;13.77;5.10;;;;;;;7.94;54.05;101404.13;5012022;28;20505;-76
2023/03/18 08:49:25;;;;;;;7.93;3.60;;;;;;;7.59;53.15;101274.34;5003173;28;20052;-75
2023/03/18 08:51:51;;;;;;;24.27;14.48;;;;;;;7.73;51.23;101402.69;5003273;28;20026;-74
2023/03/18 08:54:17;;;;;;;9.85;3.45;;;;;;;6.80;51.49;101286.06;4998050;28;20041;-74
2023/03/18 08:56:42;;;;;;;13.75;4.65;;;;;;;7.57;53.00;101406.59;4998738;28;20125;-73
2023/03/18 08:59:09;;;;;;;9.70;4.35;;;;;;;7.22;53.14;101369.03;5004186;28;20129;-75
2023/03/18 09:01:35;;;;;;;11.13;4.95;;;;;;;6.97;53.54;101242.19;5003250;28;20038;-74
2023/03/18 09:04:00;;;;;;;8.77;4.78;;;;;;;7.98;54.08;101392.88;5003019;28;20045;-73
2023/03/18 09:06:27;;;;;;;16.77;6.72;;;;;;;7.10;55.01;101275.63;5002685;28;20041;-73
2023/03/18 09:08:53;;;;;;;7.65;4.22;;;;;;;7.77;55.88;101409.78;4997234;28;20494;-71
2023/03/18 09:11:19;;;;;;;9.95;4.68;;;;;;;8.22;54.57;101377.84;4998291;28;20053;-76
2023/03/18 09:13:44;;;;;;;9.80;4.65;;;;;;;8.11;55.15;101389.75;5000362;28;20492;-75
2023/03/18 09:16:10;;;;;;;15.43;4.13;;;;;;;7.68;53.75;101270.19;4999642;28;20131;-73
2023/03/18 09:18:35;;;;;;;13.52;5.28;;;;;;;7.54;54.42;101286.41;5001707;28;20034;-73
2023/03/18 09:21:02;;;;;;;10.70;4.68;;;;;;;7.51;53.83;101304.56;5004160;28;20073;-80
2023/03/18 09:23:27;;;;;;;7.80;4.55;;;;;;;7.24;53.47;101267.31;5005272;28;20038;-72
2023/03/18 09:25:56;;;;;;;8.93;4.68;;;;;;;7.50;52.82;101273.22;4999858;28;22200;-72
2023/03/18 09:28:22;;;;;;;11.07;4.88;;;;;;;8.16;53.57;101395.09;5005259;28;20691;-71
2023/03/18 09:30:49;;;;;;;11.18;4.10;;;;;;;8.13;52.97;101380.22;5004469;28;20649;-79
2023/03/18 09:33:14;;;;;;;9.38;4.03;;;;;;;7.95;51.90;101270.88;4999235;28;20066;-75
2023/03/18 09:35:41;;;;;;;7.40;5.03;;;;;;;8.60;51.68;101361.34;5005345;28;20065;-72
2023/03/18 09:38:11;;;;;;;11.88;5.68;;;;;;;8.34;52.42;101363.31;5006644;28;20467;-74
2023/03/18 09:41:00;;;;;;;13.38;5.18;;;;;;;8.01;53.08;101386.03;5006392;28;20413;-72
2023/03/18 09:43:38;;;;;;;13.90;4.57;;;;;;;8.64;52.74;101387.63;4998309;28;20072;-73
2023/03/18 09:46:20;;;;;;;8.30;5.20;;;;;;;8.62;53.78;101389.31;4998842;28;20058;-71
2023/03/18 09:49:08;;;;;;;11.63;4.85;;;;;;;8.81;52.71;101376.66;4999429;28;20180;-75
2023/03/18 09:51:49;;;;;;;11.77;5.00;;;;;;;8.75;53.10;101381.75;5004081;28;20080;-72
2023/03/18 09:54:43;;;;;;;7.53;4.10;;;;;;;8.43;53.67;101371.44;4996277;28;20042;-72
2023/03/18 09:57:32;;;;;;;10.25;4.70;;;;;;;8.75;53.19;101368.66;4997501;28;20137;-77
2023/03/18 10:00:07;;;;;;;9.73;5.38;;;;;;;8.07;53.03;101238.91;4999436;28;20092;-72
2023/03/18 10:02:45;;;;;;;17.02;4.43;;;;;;;7.98;51.73;101249.16;5012118;28;20052;-72
2023/03/18 10:05:20;;;;;;;8.43;4.78;;;;;;;8.44;51.31;101292.97;5001437;28;20812;-73
2023/03/18 10:07:51;;;;;;;12.25;5.10;;;;;;;8.86;50.55;101378.53;4994123;28;20037;-70
2023/03/18 10:10:22;;;;;;;7.50;4.38;;;;;;;8.41;50.68;101378.34;5005256;28;20049;-75
2023/03/18 10:12:54;;;;;;;12.27;5.10;;;;;;;8.36;51.65;101378.19;5000212;28;20030;-72
2023/03/18 10:15:35;;;;;;;9.45;4.38;;;;;;;8.15;52.15;101382.91;4996093;28;20879;-74
2023/03/18 10:18:11;;;;;;;14.80;5.45;;;;;;;9.02;51.68;101366.66;5000755;28;20046;-75
2023/03/18 10:21:11;;;;;;;9.80;4.90;;;;;;;9.47;50.42;101371.09;4999942;28;20061;-72
2023/03/18 10:24:07;;;;;;;8.32;3.75;;;;;;;9.24;51.17;101365.38;5003612;28;20128;-71
2023/03/18 10:26:36;;;;;;;9.93;4.22;;;;;;;7.94;51.01;101226.44;5002474;28;20053;-76
2023/03/18 10:29:27;;;;;;;7.57;3.85;;;;;;;9.09;49.93;101362.47;4997947;28;20076;-72
2023/03/18 10:32:17;;;;;;;8.80;4.43;;;;;;;9.05;48.90;101358.00;4998708;28;20038;-72
2023/03/18 10:35:13;;;;;;;10.50;4.38;;;;;;;9.19;48.81;101356.53;5003261;28;20057;-73
2023/03/18 10:38:01;;;;;;;8.57;4.35;;;;;;;9.37;47.95;101352.56;4998028;28;20363;-71
2023/03/18 10:40:34;;;;;;;11.75;4.75;;;;;;;9.16;47.78;101270.09;4994989;28;20056;-71
2023/03/18 10:43:01;;;;;;;;;;;;;;;9.63;48.17;101350.44;4999837;28;20022;-71
2023/03/18 10:45:33;;;;;;;8.80;4.15;;;;;;;9.64;48.84;101344.31;4994741;28;19917;-72
2023/03/18 10:48:04;;;;;;;10.50;5.93;;;;;;;9.99;48.85;101349.34;5003349;28;20119;-71
2023/03/18 10:50:46;;;;;;;11.90;5.22;;;;;;;9.34;47.90;101214.56;4997111;28;20355;-70
2023/03/18 10:53:33;;;;;;;7.97;4.50;;;;;;;10.25;48.32;101224.75;5003806;28;20057;-73
2023/03/18 10:56:17;;;;;;;9.82;4.50;;;;;;;10.33;47.92;101322.84;4998679;28;20382;-71
2023/03/18 10:58:45;;;;;;;12.77;5.07;;;;;;;9.61;48.14;101187.94;4999781;28;20506;-72
2023/03/18 11:01:13;;;;;;;7.25;3.75;;;;;;;10.05;47.36;101292.63;4999158;28;20121;-74
2023/03/18 11:03:57;;;;;;;14.70;6.45;;;;;;;10.19;47.54;101333.94;4997525;28;21696;-74
2023/03/18 11:06:48;;;;;;;16.00;5.05;;;;;;;10.69;48.12;101333.88;4995801;28;20052;-72
2023/03/18 11:09:21;;;;;;;7.43;4.05;;;;;;;10.30;48.44;101324.53;5008726;28;20108;-71
2023/03/18 11:11:48;;;;;;;8.85;4.60;;;;;;;10.20;48.33;101194.06;4996219;28;20046;-73
2023/03/18 11:14:25;;;;;;;8.05;3.75;;;;;;;11.56;46.54;101298.16;5001188;28;20065;-72
2023/03/18 11:16:59;;;;;;;9.20;5.03;;;;;;;11.94;45.81;101307.31;5002411;28;20371;-72
2023/03/18 11:19:38;;;;;;;7.93;3.38;;;;;;;11.79;46.00;101203.72;4997995;28;20052;-72
2023/03/18 11:22:09;;;;;;;8.40;4.47;;;;;;;10.94;47.98;101309.72;5003393;28;20034;-72
2023/03/18 11:24:42;;;;;;;7.53;3.58;;;;;;;11.49;47.83;101295.47;4995448;28;20048;-72
2023/03/18 11:27:16;;;;;;;7.75;4.00;;;;;;;10.99;48.83;101299.28;4998172;28;20453;-73
2023/03/18 11:29:48;;;;;;;8.93;5.38;;;;;;;11.38;48.61;101283.09;5003590;28;20053;-73
2023/03/18 11:32:27;;;;;;;14.43;6.93;;;;;;;11.84;47.53;101308.94;4999363;28;20573;-72
2023/03/18 11:35:17;;;;;;;9.65;5.47;;;;;;;11.26;48.55;101298.72;5007593;28;20057;-72
2023/03/18 11:37:45;;;;;;;13.05;5.43;;;;;;;12.10;47.69;101301.31;5006773;28;20040;-72
2023/03/18 11:40:13;;;;;;;10.43;5.97;;;;;;;12.21;47.33;101306.66;5005541;28;20050;-73